sensor_id;sensor_type;location;lat;lon;timestamp;P1;durP1;ratioP1;P2;durP2;ratioP2
29030;SDS011;16122;50.236;11.734;2024-01-11T00:00:16;8.70;;;7.20;;
29030;SDS011;16122;50.236;11.734;2024-01-11T00:02:44;9.13;;;7.40;;
29030;SDS011;16122;50.236;11.734;2024-01-11T00:05:10;8.43;;;7.07;;
29030;SDS011;16122;50.236;11.734;2024-01-11T00:07:36;6.47;;;5.73;;
29030;SDS011;16122;50.236;11.734;2024-01-11T00:10:02;8.17;;;6.70;;
29030;SDS011;16122;50.236;11.734;2024-01-11T00:12:28;6.67;;;5.57;;
29030;SDS011;16122;50.236;11.734;2024-01-11T00:14:54;10.63;;;6.67;;
29030;SDS011;16122;50.236;11.734;2024-01-11T00:17:20;8.70;;;6.33;;
29030;SDS011;16122;50.236;11.734;2024-01-11T00:19:46;7.70;;;6.27;;
29030;SDS011;16122;50.236;11.734;2024-01-11T00:22:14;8.60;;;6.57;;
29030;SDS011;16122;50.236;11.734;2024-01-11T00:24:39;8.27;;;6.23;;
29030;SDS011;16122;50.236;11.734;2024-01-11T00:27:06;6.03;;;5.43;;
29030;SDS011;16122;50.236;11.734;2024-01-11T00:29:32;9.67;;;6.80;;
29030;SDS011;16122;50.236;11.734;2024-01-11T00:31:58;7.57;;;6.47;;
29030;SDS011;16122;50.236;11.734;2024-01-11T00:34:23;8.67;;;6.53;;
29030;SDS011;16122;50.236;11.734;2024-01-11T00:36:49;8.93;;;6.87;;
29030;SDS011;16122;50.236;11.734;2024-01-11T00:39:15;10.20;;;7.10;;
29030;SDS011;16122;50.236;11.734;2024-01-11T00:41:41;7.57;;;6.33;;
29030;SDS011;16122;50.236;11.734;2024-01-11T00:44:07;7.83;;;6.40;;
29030;SDS011;16122;50.236;11.734;2024-01-11T00:46:33;7.60;;;6.40;;
29030;SDS011;16122;50.236;11.734;2024-01-11T00:48:59;9.03;;;6.40;;
29030;SDS011;16122;50.236;11.734;2024-01-11T00:51:25;7.10;;;6.23;;
29030;SDS011;16122;50.236;11.734;2024-01-11T00:53:51;6.80;;;6.07;;
29030;SDS011;16122;50.236;11.734;2024-01-11T00:56:17;8.43;;;6.40;;
29030;SDS011;16122;50.236;11.734;2024-01-11T00:58:43;8.60;;;6.40;;
29030;SDS011;16122;50.236;11.734;2024-01-11T01:01:09;8.57;;;6.73;;
29030;SDS011;16122;50.236;11.734;2024-01-11T01:03:35;7.90;;;6.40;;
29030;SDS011;16122;50.236;11.734;2024-01-11T01:06:01;8.63;;;6.60;;
29030;SDS011;16122;50.236;11.734;2024-01-11T01:08:28;7.60;;;6.30;;
29030;SDS011;16122;50.236;11.734;2024-01-11T01:10:54;7.10;;;6.00;;
29030;SDS011;16122;50.236;11.734;2024-01-11T01:13:20;7.17;;;6.47;;
29030;SDS011;16122;50.236;11.734;2024-01-11T01:15:46;7.17;;;6.30;;
29030;SDS011;16122;50.236;11.734;2024-01-11T01:18:12;7.23;;;5.47;;
29030;SDS011;16122;50.236;11.734;2024-01-11T01:20:38;9.30;;;6.73;;
29030;SDS011;16122;50.236;11.734;2024-01-11T01:23:04;9.70;;;6.30;;
29030;SDS011;16122;50.236;11.734;2024-01-11T01:25:29;7.57;;;6.77;;
29030;SDS011;16122;50.236;11.734;2024-01-11T01:27:55;9.70;;;6.60;;
29030;SDS011;16122;50.236;11.734;2024-01-11T01:30:22;10.47;;;6.57;;
29030;SDS011;16122;50.236;11.734;2024-01-11T01:32:48;6.90;;;6.20;;
29030;SDS011;16122;50.236;11.734;2024-01-11T01:35:14;7.87;;;6.63;;
29030;SDS011;16122;50.236;11.734;2024-01-11T01:37:40;8.73;;;6.97;;
29030;SDS011;16122;50.236;11.734;2024-01-11T01:40:06;9.47;;;6.57;;
29030;SDS011;16122;50.236;11.734;2024-01-11T01:42:33;8.03;;;6.70;;
29030;SDS011;16122;50.236;11.734;2024-01-11T01:44:59;9.30;;;6.87;;
29030;SDS011;16122;50.236;11.734;2024-01-11T01:47:25;10.37;;;6.80;;
29030;SDS011;16122;50.236;11.734;2024-01-11T01:49:54;9.30;;;6.80;;
29030;SDS011;16122;50.236;11.734;2024-01-11T01:52:21;8.20;;;6.17;;
29030;SDS011;16122;50.236;11.734;2024-01-11T01:54:48;9.60;;;6.93;;
29030;SDS011;16122;50.236;11.734;2024-01-11T01:57:16;8.97;;;7.30;;
29030;SDS011;16122;50.236;11.734;2024-01-11T01:59:43;9.60;;;7.10;;
29030;SDS011;16122;50.236;11.734;2024-01-11T02:02:11;9.27;;;7.57;;
29030;SDS011;16122;50.236;11.734;2024-01-11T02:04:37;9.30;;;6.90;;
29030;SDS011;16122;50.236;11.734;2024-01-11T02:07:04;8.83;;;7.23;;
29030;SDS011;16122;50.236;11.734;2024-01-11T02:09:31;10.47;;;8.00;;
29030;SDS011;16122;50.236;11.734;2024-01-11T02:11:58;10.20;;;7.63;;
29030;SDS011;16122;50.236;11.734;2024-01-11T02:14:25;8.40;;;6.87;;
29030;SDS011;16122;50.236;11.734;2024-01-11T02:16:51;8.10;;;6.60;;
29030;SDS011;16122;50.236;11.734;2024-01-11T02:19:18;8.60;;;7.03;;
29030;SDS011;16122;50.236;11.734;2024-01-11T02:21:46;8.50;;;7.00;;
29030;SDS011;16122;50.236;11.734;2024-01-11T02:24:14;8.63;;;7.03;;
29030;SDS011;16122;50.236;11.734;2024-01-11T02:26:57;8.20;;;7.17;;
29030;SDS011;16122;50.236;11.734;2024-01-11T02:29:25;9.53;;;7.83;;
29030;SDS011;16122;50.236;11.734;2024-01-11T02:31:51;9.60;;;7.80;;
29030;SDS011;16122;50.236;11.734;2024-01-11T02:34:17;10.63;;;7.50;;
29030;SDS011;16122;50.236;11.734;2024-01-11T02:36:43;9.47;;;7.50;;
29030;SDS011;16122;50.236;11.734;2024-01-11T02:39:09;13.80;;;8.77;;
29030;SDS011;16122;50.236;11.734;2024-01-11T02:41:36;8.37;;;6.33;;
29030;SDS011;16122;50.236;11.734;2024-01-11T02:44:02;8.80;;;7.17;;
29030;SDS011;16122;50.236;11.734;2024-01-11T02:46:29;8.10;;;6.83;;
29030;SDS011;16122;50.236;11.734;2024-01-11T02:48:55;8.07;;;6.60;;
29030;SDS011;16122;50.236;11.734;2024-01-11T02:51:21;9.10;;;6.90;;
29030;SDS011;16122;50.236;11.734;2024-01-11T02:53:47;10.10;;;7.83;;
29030;SDS011;16122;50.236;11.734;2024-01-11T02:56:13;9.40;;;7.60;;
29030;SDS011;16122;50.236;11.734;2024-01-11T02:58:39;7.87;;;7.07;;
29030;SDS011;16122;50.236;11.734;2024-01-11T03:01:05;8.90;;;7.30;;
29030;SDS011;16122;50.236;11.734;2024-01-11T03:03:31;9.17;;;7.47;;
29030;SDS011;16122;50.236;11.734;2024-01-11T03:05:57;8.57;;;7.10;;
29030;SDS011;16122;50.236;11.734;2024-01-11T03:08:23;8.83;;;7.37;;
29030;SDS011;16122;50.236;11.734;2024-01-11T03:10:49;12.43;;;7.40;;
29030;SDS011;16122;50.236;11.734;2024-01-11T03:13:14;8.53;;;7.00;;
29030;SDS011;16122;50.236;11.734;2024-01-11T03:15:40;10.30;;;7.90;;
29030;SDS011;16122;50.236;11.734;2024-01-11T03:18:06;9.63;;;8.17;;
29030;SDS011;16122;50.236;11.734;2024-01-11T03:20:31;10.03;;;7.47;;
29030;SDS011;16122;50.236;11.734;2024-01-11T03:22:57;10.10;;;7.87;;
29030;SDS011;16122;50.236;11.734;2024-01-11T03:25:23;9.90;;;7.13;;
29030;SDS011;16122;50.236;11.734;2024-01-11T03:27:49;9.90;;;7.77;;
29030;SDS011;16122;50.236;11.734;2024-01-11T03:30:15;9.33;;;8.30;;
29030;SDS011;16122;50.236;11.734;2024-01-11T03:32:41;8.67;;;7.10;;
29030;SDS011;16122;50.236;11.734;2024-01-11T03:35:07;8.80;;;7.90;;
29030;SDS011;16122;50.236;11.734;2024-01-11T03:37:34;9.93;;;7.27;;
29030;SDS011;16122;50.236;11.734;2024-01-11T03:40:00;11.50;;;7.70;;
29030;SDS011;16122;50.236;11.734;2024-01-11T03:42:27;8.13;;;7.17;;
29030;SDS011;16122;50.236;11.734;2024-01-11T03:44:53;9.80;;;7.77;;
29030;SDS011;16122;50.236;11.734;2024-01-11T03:47:19;9.30;;;7.40;;
29030;SDS011;16122;50.236;11.734;2024-01-11T03:49:45;9.60;;;7.67;;
29030;SDS011;16122;50.236;11.734;2024-01-11T03:52:11;8.63;;;7.53;;
29030;SDS011;16122;50.236;11.734;2024-01-11T03:54:36;8.40;;;7.43;;
29030;SDS011;16122;50.236;11.734;2024-01-11T03:57:02;9.20;;;7.50;;
29030;SDS011;16122;50.236;11.734;2024-01-11T03:59:28;8.37;;;7.50;;
29030;SDS011;16122;50.236;11.734;2024-01-11T04:01:55;8.53;;;7.63;;
29030;SDS011;16122;50.236;11.734;2024-01-11T04:04:23;9.63;;;7.57;;
29030;SDS011;16122;50.236;11.734;2024-01-11T04:06:49;9.47;;;7.77;;
29030;SDS011;16122;50.236;11.734;2024-01-11T04:09:16;11.03;;;8.40;;
29030;SDS011;16122;50.236;11.734;2024-01-11T04:11:41;10.57;;;7.50;;
29030;SDS011;16122;50.236;11.734;2024-01-11T04:14:07;9.60;;;7.80;;
29030;SDS011;16122;50.236;11.734;2024-01-11T04:16:33;9.07;;;7.77;;
29030;SDS011;16122;50.236;11.734;2024-01-11T04:18:59;10.80;;;8.20;;
29030;SDS011;16122;50.236;11.734;2024-01-11T04:21:26;8.77;;;7.47;;
29030;SDS011;16122;50.236;11.734;2024-01-11T04:23:54;11.83;;;8.60;;
29030;SDS011;16122;50.236;11.734;2024-01-11T04:26:20;10.07;;;8.07;;
29030;SDS011;16122;50.236;11.734;2024-01-11T04:28:46;11.40;;;7.83;;
29030;SDS011;16122;50.236;11.734;2024-01-11T04:31:16;8.30;;;7.40;;
29030;SDS011;16122;50.236;11.734;2024-01-11T04:33:42;10.20;;;8.20;;
29030;SDS011;16122;50.236;11.734;2024-01-11T04:36:10;10.93;;;8.13;;
29030;SDS011;16122;50.236;11.734;2024-01-11T04:38:36;9.57;;;8.00;;
29030;SDS011;16122;50.236;11.734;2024-01-11T04:41:08;10.07;;;7.67;;
29030;SDS011;16122;50.236;11.734;2024-01-11T04:43:44;8.83;;;7.30;;
29030;SDS011;16122;50.236;11.734;2024-01-11T04:48:46;11.13;;;7.70;;
29030;SDS011;16122;50.236;11.734;2024-01-11T04:51:14;10.13;;;7.20;;
29030;SDS011;16122;50.236;11.734;2024-01-11T04:53:41;10.20;;;8.10;;
29030;SDS011;16122;50.236;11.734;2024-01-11T04:56:09;9.57;;;7.90;;
29030;SDS011;16122;50.236;11.734;2024-01-11T04:58:36;9.60;;;7.70;;
29030;SDS011;16122;50.236;11.734;2024-01-11T05:01:04;35.13;;;25.97;;
29030;SDS011;16122;50.236;11.734;2024-01-11T05:03:31;29.97;;;21.90;;
29030;SDS011;16122;50.236;11.734;2024-01-11T05:05:57;23.93;;;17.20;;
29030;SDS011;16122;50.236;11.734;2024-01-11T05:08:26;21.90;;;16.60;;
29030;SDS011;16122;50.236;11.734;2024-01-11T05:10:53;22.30;;;17.00;;
29030;SDS011;16122;50.236;11.734;2024-01-11T05:13:19;20.30;;;15.37;;
29030;SDS011;16122;50.236;11.734;2024-01-11T05:15:45;22.50;;;16.17;;
29030;SDS011;16122;50.236;11.734;2024-01-11T05:18:11;22.07;;;15.03;;
29030;SDS011;16122;50.236;11.734;2024-01-11T05:20:37;20.70;;;16.00;;
29030;SDS011;16122;50.236;11.734;2024-01-11T05:23:03;16.50;;;13.47;;
29030;SDS011;16122;50.236;11.734;2024-01-11T05:25:30;19.00;;;14.57;;
29030;SDS011;16122;50.236;11.734;2024-01-11T05:27:59;17.93;;;12.57;;
29030;SDS011;16122;50.236;11.734;2024-01-11T05:30:25;18.73;;;13.77;;
29030;SDS011;16122;50.236;11.734;2024-01-11T05:32:52;16.93;;;11.87;;
29030;SDS011;16122;50.236;11.734;2024-01-11T05:35:18;15.73;;;12.00;;
29030;SDS011;16122;50.236;11.734;2024-01-11T05:37:44;16.03;;;12.00;;
29030;SDS011;16122;50.236;11.734;2024-01-11T05:40:10;15.60;;;12.70;;
29030;SDS011;16122;50.236;11.734;2024-01-11T05:42:36;16.63;;;11.47;;
29030;SDS011;16122;50.236;11.734;2024-01-11T05:45:04;15.67;;;11.67;;
29030;SDS011;16122;50.236;11.734;2024-01-11T05:47:30;14.60;;;11.20;;
29030;SDS011;16122;50.236;11.734;2024-01-11T05:49:56;14.47;;;11.10;;
29030;SDS011;16122;50.236;11.734;2024-01-11T05:52:22;12.43;;;10.90;;
29030;SDS011;16122;50.236;11.734;2024-01-11T05:54:48;16.60;;;11.27;;
29030;SDS011;16122;50.236;11.734;2024-01-11T05:57:13;14.07;;;11.13;;
29030;SDS011;16122;50.236;11.734;2024-01-11T05:59:45;14.07;;;11.10;;
29030;SDS011;16122;50.236;11.734;2024-01-11T06:02:12;17.10;;;12.03;;
29030;SDS011;16122;50.236;11.734;2024-01-11T06:04:38;17.90;;;10.70;;
29030;SDS011;16122;50.236;11.734;2024-01-11T06:07:05;16.10;;;10.87;;
29030;SDS011;16122;50.236;11.734;2024-01-11T06:09:31;13.83;;;9.97;;
29030;SDS011;16122;50.236;11.734;2024-01-11T06:11:56;16.87;;;10.77;;
29030;SDS011;16122;50.236;11.734;2024-01-11T06:14:22;13.83;;;10.27;;
29030;SDS011;16122;50.236;11.734;2024-01-11T06:16:48;13.53;;;9.90;;
29030;SDS011;16122;50.236;11.734;2024-01-11T06:19:14;14.93;;;10.60;;
29030;SDS011;16122;50.236;11.734;2024-01-11T06:21:40;16.40;;;11.13;;
29030;SDS011;16122;50.236;11.734;2024-01-11T06:24:06;11.60;;;10.17;;
29030;SDS011;16122;50.236;11.734;2024-01-11T06:26:31;15.93;;;9.87;;
29030;SDS011;16122;50.236;11.734;2024-01-11T06:28:58;10.70;;;9.40;;
29030;SDS011;16122;50.236;11.734;2024-01-11T06:31:24;11.00;;;9.17;;
29030;SDS011;16122;50.236;11.734;2024-01-11T06:33:51;12.33;;;9.90;;
29030;SDS011;16122;50.236;11.734;2024-01-11T06:36:16;11.60;;;9.03;;
29030;SDS011;16122;50.236;11.734;2024-01-11T06:38:42;15.57;;;10.30;;
29030;SDS011;16122;50.236;11.734;2024-01-11T06:41:08;14.17;;;10.13;;
29030;SDS011;16122;50.236;11.734;2024-01-11T06:43:34;10.30;;;9.20;;
29030;SDS011;16122;50.236;11.734;2024-01-11T06:46:06;12.53;;;9.50;;
29030;SDS011;16122;50.236;11.734;2024-01-11T06:48:32;11.10;;;8.90;;
29030;SDS011;16122;50.236;11.734;2024-01-11T06:50:58;12.07;;;9.23;;
29030;SDS011;16122;50.236;11.734;2024-01-11T06:53:24;12.73;;;9.60;;
29030;SDS011;16122;50.236;11.734;2024-01-11T06:55:50;14.53;;;10.03;;
29030;SDS011;16122;50.236;11.734;2024-01-11T06:58:17;14.00;;;10.43;;
29030;SDS011;16122;50.236;11.734;2024-01-11T07:00:46;13.63;;;10.37;;
29030;SDS011;16122;50.236;11.734;2024-01-11T07:03:12;11.77;;;10.13;;
29030;SDS011;16122;50.236;11.734;2024-01-11T07:05:38;13.57;;;10.20;;
29030;SDS011;16122;50.236;11.734;2024-01-11T07:08:03;14.93;;;10.37;;
29030;SDS011;16122;50.236;11.734;2024-01-11T07:10:29;11.80;;;9.40;;
29030;SDS011;16122;50.236;11.734;2024-01-11T07:12:55;13.93;;;10.57;;
29030;SDS011;16122;50.236;11.734;2024-01-11T07:15:21;11.93;;;8.73;;
29030;SDS011;16122;50.236;11.734;2024-01-11T07:17:48;11.77;;;10.30;;
29030;SDS011;16122;50.236;11.734;2024-01-11T07:20:14;13.13;;;10.27;;
29030;SDS011;16122;50.236;11.734;2024-01-11T07:22:42;13.23;;;10.00;;
29030;SDS011;16122;50.236;11.734;2024-01-11T07:25:08;10.90;;;9.40;;
29030;SDS011;16122;50.236;11.734;2024-01-11T07:27:34;13.53;;;9.80;;
29030;SDS011;16122;50.236;11.734;2024-01-11T07:30:01;11.77;;;10.37;;
29030;SDS011;16122;50.236;11.734;2024-01-11T07:32:28;14.57;;;9.63;;
29030;SDS011;16122;50.236;11.734;2024-01-11T07:34:54;14.47;;;10.73;;
29030;SDS011;16122;50.236;11.734;2024-01-11T07:37:19;12.87;;;9.80;;
29030;SDS011;16122;50.236;11.734;2024-01-11T07:39:45;14.83;;;10.63;;
29030;SDS011;16122;50.236;11.734;2024-01-11T07:42:11;14.47;;;10.73;;
29030;SDS011;16122;50.236;11.734;2024-01-11T07:44:37;12.37;;;11.03;;
29030;SDS011;16122;50.236;11.734;2024-01-11T07:47:03;14.30;;;10.60;;
29030;SDS011;16122;50.236;11.734;2024-01-11T07:49:29;15.93;;;9.57;;
29030;SDS011;16122;50.236;11.734;2024-01-11T07:51:55;11.27;;;9.80;;
29030;SDS011;16122;50.236;11.734;2024-01-11T07:54:21;12.93;;;10.30;;
29030;SDS011;16122;50.236;11.734;2024-01-11T07:56:47;11.47;;;9.30;;
29030;SDS011;16122;50.236;11.734;2024-01-11T07:59:13;10.67;;;9.20;;
29030;SDS011;16122;50.236;11.734;2024-01-11T08:01:40;10.87;;;9.73;;
29030;SDS011;16122;50.236;11.734;2024-01-11T08:04:05;13.20;;;9.93;;
29030;SDS011;16122;50.236;11.734;2024-01-11T08:06:32;13.37;;;11.10;;
29030;SDS011;16122;50.236;11.734;2024-01-11T08:08:57;12.97;;;10.73;;
29030;SDS011;16122;50.236;11.734;2024-01-11T08:11:23;11.33;;;9.80;;
29030;SDS011;16122;50.236;11.734;2024-01-11T08:13:49;16.67;;;10.70;;
29030;SDS011;16122;50.236;11.734;2024-01-11T08:16:18;14.03;;;11.13;;
29030;SDS011;16122;50.236;11.734;2024-01-11T08:18:44;12.57;;;10.50;;
29030;SDS011;16122;50.236;11.734;2024-01-11T08:21:10;14.40;;;10.80;;
29030;SDS011;16122;50.236;11.734;2024-01-11T08:23:37;14.53;;;10.50;;
29030;SDS011;16122;50.236;11.734;2024-01-11T08:26:10;14.67;;;10.77;;
29030;SDS011;16122;50.236;11.734;2024-01-11T08:28:37;14.37;;;10.63;;
29030;SDS011;16122;50.236;11.734;2024-01-11T08:31:02;12.67;;;10.53;;
29030;SDS011;16122;50.236;11.734;2024-01-11T08:33:30;11.60;;;9.70;;
29030;SDS011;16122;50.236;11.734;2024-01-11T08:35:56;13.77;;;11.03;;
29030;SDS011;16122;50.236;11.734;2024-01-11T08:38:22;13.80;;;10.10;;
29030;SDS011;16122;50.236;11.734;2024-01-11T08:40:49;12.87;;;10.40;;
29030;SDS011;16122;50.236;11.734;2024-01-11T08:43:15;13.70;;;10.30;;
29030;SDS011;16122;50.236;11.734;2024-01-11T08:45:41;14.50;;;11.27;;
29030;SDS011;16122;50.236;11.734;2024-01-11T08:48:08;14.20;;;10.40;;
29030;SDS011;16122;50.236;11.734;2024-01-11T08:50:35;14.37;;;10.67;;
29030;SDS011;16122;50.236;11.734;2024-01-11T08:53:00;12.50;;;9.83;;
29030;SDS011;16122;50.236;11.734;2024-01-11T08:55:26;12.53;;;9.23;;
29030;SDS011;16122;50.236;11.734;2024-01-11T08:57:52;11.97;;;9.43;;
29030;SDS011;16122;50.236;11.734;2024-01-11T09:00:18;12.23;;;10.70;;
29030;SDS011;16122;50.236;11.734;2024-01-11T09:02:44;11.90;;;10.23;;
29030;SDS011;16122;50.236;11.734;2024-01-11T09:05:11;13.43;;;9.07;;
29030;SDS011;16122;50.236;11.734;2024-01-11T09:07:39;12.17;;;9.90;;
29030;SDS011;16122;50.236;11.734;2024-01-11T09:10:05;13.27;;;10.30;;
29030;SDS011;16122;50.236;11.734;2024-01-11T09:12:34;12.60;;;9.73;;
29030;SDS011;16122;50.236;11.734;2024-01-11T09:15:00;16.53;;;10.00;;
29030;SDS011;16122;50.236;11.734;2024-01-11T09:17:26;15.30;;;9.80;;
29030;SDS011;16122;50.236;11.734;2024-01-11T09:19:52;13.17;;;11.00;;
29030;SDS011;16122;50.236;11.734;2024-01-11T09:22:18;13.60;;;10.23;;
29030;SDS011;16122;50.236;11.734;2024-01-11T09:24:44;14.73;;;11.43;;
29030;SDS011;16122;50.236;11.734;2024-01-11T09:27:10;14.13;;;10.27;;
29030;SDS011;16122;50.236;11.734;2024-01-11T09:29:36;14.37;;;10.33;;
29030;SDS011;16122;50.236;11.734;2024-01-11T09:32:01;12.87;;;10.03;;
29030;SDS011;16122;50.236;11.734;2024-01-11T09:34:27;13.03;;;10.30;;
29030;SDS011;16122;50.236;11.734;2024-01-11T09:36:53;13.60;;;10.53;;
29030;SDS011;16122;50.236;11.734;2024-01-11T09:39:20;15.43;;;11.30;;
29030;SDS011;16122;50.236;11.734;2024-01-11T09:41:51;12.20;;;10.20;;
29030;SDS011;16122;50.236;11.734;2024-01-11T09:44:23;13.40;;;10.33;;
29030;SDS011;16122;50.236;11.734;2024-01-11T09:46:50;11.77;;;9.70;;
29030;SDS011;16122;50.236;11.734;2024-01-11T09:49:17;13.03;;;10.23;;
29030;SDS011;16122;50.236;11.734;2024-01-11T09:51:46;11.17;;;9.90;;
29030;SDS011;16122;50.236;11.734;2024-01-11T09:54:12;12.13;;;8.90;;
29030;SDS011;16122;50.236;11.734;2024-01-11T09:56:41;14.97;;;10.93;;
29030;SDS011;16122;50.236;11.734;2024-01-11T09:59:08;13.70;;;10.60;;
29030;SDS011;16122;50.236;11.734;2024-01-11T10:01:35;12.77;;;10.07;;
29030;SDS011;16122;50.236;11.734;2024-01-11T10:04:01;13.10;;;10.60;;
29030;SDS011;16122;50.236;11.734;2024-01-11T10:06:28;13.07;;;10.37;;
29030;SDS011;16122;50.236;11.734;2024-01-11T10:08:58;11.23;;;9.80;;
29030;SDS011;16122;50.236;11.734;2024-01-11T10:11:24;13.07;;;9.50;;
29030;SDS011;16122;50.236;11.734;2024-01-11T10:13:55;12.20;;;9.50;;
29030;SDS011;16122;50.236;11.734;2024-01-11T10:16:22;13.17;;;10.03;;
29030;SDS011;16122;50.236;11.734;2024-01-11T10:18:49;13.30;;;10.30;;
29030;SDS011;16122;50.236;11.734;2024-01-11T10:21:18;13.47;;;10.33;;
29030;SDS011;16122;50.236;11.734;2024-01-11T10:23:44;13.53;;;10.33;;
29030;SDS011;16122;50.236;11.734;2024-01-11T10:26:10;11.00;;;9.70;;
29030;SDS011;16122;50.236;11.734;2024-01-11T10:28:36;11.80;;;9.40;;
29030;SDS011;16122;50.236;11.734;2024-01-11T10:31:05;12.43;;;9.50;;
29030;SDS011;16122;50.236;11.734;2024-01-11T10:33:34;12.03;;;9.40;;
29030;SDS011;16122;50.236;11.734;2024-01-11T10:36:01;12.07;;;9.40;;
29030;SDS011;16122;50.236;11.734;2024-01-11T10:38:27;11.87;;;10.37;;
29030;SDS011;16122;50.236;11.734;2024-01-11T10:40:56;13.60;;;10.20;;
29030;SDS011;16122;50.236;11.734;2024-01-11T10:43:26;12.33;;;9.33;;
29030;SDS011;16122;50.236;11.734;2024-01-11T10:45:52;12.93;;;9.40;;
29030;SDS011;16122;50.236;11.734;2024-01-11T10:48:24;13.03;;;9.87;;
29030;SDS011;16122;50.236;11.734;2024-01-11T10:51:00;12.33;;;9.10;;
29030;SDS011;16122;50.236;11.734;2024-01-11T10:53:43;11.03;;;9.13;;
29030;SDS011;16122;50.236;11.734;2024-01-11T10:56:16;11.83;;;10.43;;
29030;SDS011;16122;50.236;11.734;2024-01-11T10:58:42;13.93;;;9.43;;
29030;SDS011;16122;50.236;11.734;2024-01-11T11:01:09;12.70;;;9.70;;
29030;SDS011;16122;50.236;11.734;2024-01-11T11:03:36;10.90;;;9.07;;
29030;SDS011;16122;50.236;11.734;2024-01-11T11:06:04;11.77;;;9.10;;
29030;SDS011;16122;50.236;11.734;2024-01-11T11:08:31;13.27;;;10.20;;
29030;SDS011;16122;50.236;11.734;2024-01-11T11:10:58;11.40;;;9.07;;
29030;SDS011;16122;50.236;11.734;2024-01-11T11:13:25;12.33;;;8.77;;
29030;SDS011;16122;50.236;11.734;2024-01-11T11:15:52;12.33;;;9.47;;
29030;SDS011;16122;50.236;11.734;2024-01-11T11:18:19;11.20;;;9.03;;
29030;SDS011;16122;50.236;11.734;2024-01-11T11:20:46;12.23;;;9.53;;
29030;SDS011;16122;50.236;11.734;2024-01-11T11:23:13;10.70;;;9.13;;
29030;SDS011;16122;50.236;11.734;2024-01-11T11:25:43;11.97;;;9.07;;
29030;SDS011;16122;50.236;11.734;2024-01-11T11:28:11;11.37;;;9.20;;
29030;SDS011;16122;50.236;11.734;2024-01-11T11:30:39;11.70;;;8.73;;
29030;SDS011;16122;50.236;11.734;2024-01-11T11:33:07;10.90;;;9.33;;
29030;SDS011;16122;50.236;11.734;2024-01-11T11:35:35;14.63;;;9.97;;
29030;SDS011;16122;50.236;11.734;2024-01-11T11:38:01;10.10;;;8.90;;
29030;SDS011;16122;50.236;11.734;2024-01-11T11:40:37;9.63;;;8.63;;
29030;SDS011;16122;50.236;11.734;2024-01-11T11:43:10;10.93;;;9.77;;
29030;SDS011;16122;50.236;11.734;2024-01-11T11:45:36;16.37;;;10.53;;
29030;SDS011;16122;50.236;11.734;2024-01-11T11:53:40;10.83;;;9.60;;
29030;SDS011;16122;50.236;11.734;2024-01-11T11:56:08;10.50;;;8.77;;
29030;SDS011;16122;50.236;11.734;2024-01-11T11:58:35;11.97;;;9.50;;
29030;SDS011;16122;50.236;11.734;2024-01-11T12:01:02;10.57;;;9.27;;
29030;SDS011;16122;50.236;11.734;2024-01-11T12:03:30;11.63;;;8.90;;
29030;SDS011;16122;50.236;11.734;2024-01-11T12:06:02;10.83;;;8.93;;
29030;SDS011;16122;50.236;11.734;2024-01-11T12:08:30;12.43;;;9.10;;
29030;SDS011;16122;50.236;11.734;2024-01-11T12:10:57;11.23;;;9.03;;
29030;SDS011;16122;50.236;11.734;2024-01-11T12:13:23;11.13;;;9.87;;
29030;SDS011;16122;50.236;11.734;2024-01-11T12:15:50;10.93;;;9.20;;
29030;SDS011;16122;50.236;11.734;2024-01-11T12:18:15;12.67;;;9.50;;
29030;SDS011;16122;50.236;11.734;2024-01-11T12:20:41;12.33;;;9.30;;
29030;SDS011;16122;50.236;11.734;2024-01-11T12:23:07;9.57;;;8.43;;
29030;SDS011;16122;50.236;11.734;2024-01-11T12:25:34;11.27;;;8.40;;
29030;SDS011;16122;50.236;11.734;2024-01-11T12:28:00;10.30;;;8.80;;
29030;SDS011;16122;50.236;11.734;2024-01-11T12:30:26;11.70;;;9.17;;
29030;SDS011;16122;50.236;11.734;2024-01-11T12:32:55;13.00;;;9.97;;
29030;SDS011;16122;50.236;11.734;2024-01-11T12:35:21;12.17;;;9.63;;
29030;SDS011;16122;50.236;11.734;2024-01-11T12:38:01;10.40;;;8.87;;
29030;SDS011;16122;50.236;11.734;2024-01-11T12:40:32;9.90;;;8.50;;
29030;SDS011;16122;50.236;11.734;2024-01-11T12:43:05;11.53;;;9.17;;
29030;SDS011;16122;50.236;11.734;2024-01-11T12:45:35;11.07;;;9.43;;
29030;SDS011;16122;50.236;11.734;2024-01-11T12:48:02;10.40;;;8.17;;
29030;SDS011;16122;50.236;11.734;2024-01-11T12:50:29;10.10;;;8.67;;
29030;SDS011;16122;50.236;11.734;2024-01-11T12:53:08;10.23;;;8.43;;
29030;SDS011;16122;50.236;11.734;2024-01-11T12:55:34;11.40;;;7.97;;
29030;SDS011;16122;50.236;11.734;2024-01-11T12:58:06;10.37;;;8.57;;
29030;SDS011;16122;50.236;11.734;2024-01-11T13:00:37;9.43;;;8.40;;
29030;SDS011;16122;50.236;11.734;2024-01-11T13:03:04;10.43;;;8.87;;
29030;SDS011;16122;50.236;11.734;2024-01-11T13:05:31;9.83;;;8.33;;
29030;SDS011;16122;50.236;11.734;2024-01-11T13:08:09;9.30;;;8.30;;
29030;SDS011;16122;50.236;11.734;2024-01-11T13:10:36;9.87;;;8.20;;
29030;SDS011;16122;50.236;11.734;2024-01-11T13:13:03;10.23;;;8.53;;
29030;SDS011;16122;50.236;11.734;2024-01-11T13:15:30;11.43;;;8.40;;
29030;SDS011;16122;50.236;11.734;2024-01-11T13:18:00;8.77;;;7.77;;
29030;SDS011;16122;50.236;11.734;2024-01-11T13:20:26;12.80;;;9.07;;
29030;SDS011;16122;50.236;11.734;2024-01-11T13:23:13;9.07;;;8.00;;
29030;SDS011;16122;50.236;11.734;2024-01-11T13:25:46;11.20;;;9.20;;
29030;SDS011;16122;50.236;11.734;2024-01-11T13:28:12;9.80;;;7.77;;
29030;SDS011;16122;50.236;11.734;2024-01-11T13:30:39;8.40;;;7.50;;
29030;SDS011;16122;50.236;11.734;2024-01-11T13:33:06;10.90;;;8.83;;
29030;SDS011;16122;50.236;11.734;2024-01-11T13:35:40;10.67;;;8.60;;
29030;SDS011;16122;50.236;11.734;2024-01-11T13:38:08;8.23;;;7.17;;
29030;SDS011;16122;50.236;11.734;2024-01-11T13:40:34;10.30;;;8.33;;
29030;SDS011;16122;50.236;11.734;2024-01-11T13:43:00;9.87;;;8.07;;
29030;SDS011;16122;50.236;11.734;2024-01-11T13:45:28;10.53;;;8.03;;
29030;SDS011;16122;50.236;11.734;2024-01-11T13:47:54;12.30;;;8.90;;
29030;SDS011;16122;50.236;11.734;2024-01-11T13:50:22;10.17;;;8.60;;
29030;SDS011;16122;50.236;11.734;2024-01-11T13:52:52;12.70;;;9.00;;
29030;SDS011;16122;50.236;11.734;2024-01-11T13:55:18;10.37;;;7.73;;
29030;SDS011;16122;50.236;11.734;2024-01-11T13:57:46;12.40;;;8.80;;
29030;SDS011;16122;50.236;11.734;2024-01-11T14:00:12;8.60;;;7.70;;
29030;SDS011;16122;50.236;11.734;2024-01-11T14:02:39;8.77;;;7.70;;
29030;SDS011;16122;50.236;11.734;2024-01-11T14:05:09;10.20;;;8.07;;
29030;SDS011;16122;50.236;11.734;2024-01-11T14:07:41;12.03;;;7.67;;
29030;SDS011;16122;50.236;11.734;2024-01-11T14:10:09;8.70;;;7.80;;
29030;SDS011;16122;50.236;11.734;2024-01-11T14:12:35;8.30;;;6.97;;
29030;SDS011;16122;50.236;11.734;2024-01-11T14:15:05;11.90;;;8.37;;
29030;SDS011;16122;50.236;11.734;2024-01-11T14:17:32;10.87;;;8.60;;
29030;SDS011;16122;50.236;11.734;2024-01-11T14:20:01;10.20;;;8.70;;
29030;SDS011;16122;50.236;11.734;2024-01-11T14:22:28;11.97;;;7.87;;
29030;SDS011;16122;50.236;11.734;2024-01-11T14:24:54;10.20;;;8.37;;
29030;SDS011;16122;50.236;11.734;2024-01-11T14:27:20;8.63;;;7.30;;